Time;durP1;ratioP1;P1;durP2;ratioP2;P2;SDS_P1;SDS_P2;PMS_P1;PMS_P2;Temp;Humidity;BMP_temperature;BMP_pressure;BME280_temperature;BME280_humidity;BME280_pressure;Samples;Min_cycle;Max_cycle;Signal;HPM_P1;HPM_P2
2021/05/22 00:01:54;;;;;;;8.73;3.23;;;;;;;12.13;67.84;99450.39;3428976;84;32148;-92
2021/05/22 00:06:55;;;;;;;6.03;2.40;;;;;;;12.05;68.40;99448.30;3417002;84;98946;-93
2021/05/22 00:11:55;;;;;;;8.40;2.80;;;;;;;11.96;68.99;99448.61;3444220;84;25798;-91
2021/05/22 00:16:56;;;;;;;6.33;2.60;;;;;;;11.86;69.81;99459.14;3423649;84;98936;-93
2021/05/22 00:21:57;;;;;;;6.37;2.83;;;;;;;11.77;70.39;99449.97;3425958;84;34738;-92
2021/05/22 00:26:57;;;;;;;7.77;3.23;;;;;;;11.70;70.01;99450.05;3414967;84;98966;-93
2021/05/22 00:31:58;;;;;;;4.60;2.30;;;;;;;11.64;70.71;99453.64;3417502;84;35353;-93
2021/05/22 00:36:59;;;;;;;7.27;3.10;;;;;;;11.56;70.87;99439.72;3417038;84;99038;-92
2021/05/22 00:42:04;;;;;;;7.03;3.20;;;;;;;11.51;72.14;99448.42;3421750;84;36013;-91
2021/05/22 00:47:03;;;;;;;6.80;2.72;;;;;;;11.43;71.96;99456.53;3406698;84;98654;-92
2021/05/22 00:52:04;;;;;;;5.87;2.60;;;;;;;11.34;72.60;99452.10;3439060;84;25758;-92
2021/05/22 00:57:05;;;;;;;6.37;3.03;;;;;;;11.28;72.69;99449.59;3427923;84;98755;-92
2021/05/22 01:02:05;;;;;;;8.80;3.10;;;;;;;11.23;73.49;99441.76;3429021;84;25822;-91
2021/05/22 01:07:06;;;;;;;8.63;2.90;;;;;;;11.17;73.98;99435.12;3425747;84;98889;-94
2021/05/22 01:12:08;;;;;;;8.13;2.87;;;;;;;11.13;74.31;99436.49;3442647;84;32416;-92
2021/05/22 01:17:12;;;;;;;6.47;2.60;;;;;;;11.10;74.24;99424.13;3428662;84;98934;-92
2021/05/22 01:22:15;;;;;;;5.55;2.30;;;;;;;11.07;74.20;99420.83;3430181;84;35310;-91
2021/05/22 01:27:17;;;;;;;6.05;2.67;;;;;;;11.03;74.41;99429.11;3423442;83;98887;-91
2021/05/22 01:32:18;;;;;;;4.33;2.30;;;;;;;10.99;74.16;99404.16;3431516;84;34516;-91
2021/05/22 01:37:19;;;;;;;7.43;2.70;;;;;;;10.92;74.51;99389.86;3418451;84;98555;-92
2021/05/22 01:42:20;;;;;;;7.10;2.87;;;;;;;10.89;75.13;99391.23;3437130;83;27391;-92
2021/05/22 01:47:23;;;;;;;7.87;2.75;;;;;;;10.82;75.21;99378.33;3442902;83;99459;-91
2021/05/22 01:52:25;;;;;;;5.87;2.60;;;;;;;10.76;74.63;99390.16;3421097;84;36013;-92
2021/05/22 01:57:26;;;;;;;6.17;2.90;;;;;;;10.71;75.05;99382.33;3415044;84;99232;-92
2021/05/22 02:02:27;;;;;;;6.83;2.80;;;;;;;10.68;75.27;99380.39;3419414;84;25773;-92
2021/05/22 02:07:30;;;;;;;8.07;2.87;;;;;;;10.67;76.17;99390.61;3411795;84;99068;-92
2021/05/22 02:12:33;;;;;;;9.05;3.40;;;;;;;10.67;75.92;99386.48;3430679;84;34904;-93
2021/05/22 02:17:37;;;;;;;6.62;3.10;;;;;;;10.68;76.50;99388.04;3419707;84;99070;-93
2021/05/22 02:22:41;;;;;;;6.85;2.67;;;;;;;10.68;76.63;99388.04;3402635;84;35276;-93
2021/05/22 02:27:42;;;;;;;8.08;3.15;;;;;;;10.69;76.21;99392.35;3417075;84;98932;-91
2021/05/22 02:32:47;;;;;;;6.37;3.27;;;;;;;10.68;76.65;99401.80;3378527;85;33424;-93
2021/05/22 02:37:54;;;;;;;8.73;3.60;;;;;;;10.68;76.55;99401.80;3459437;83;99178;-91
2021/05/22 02:43:02;;;;;;;9.23;3.42;;;;;;;10.68;77.20;99391.40;3430362;84;34840;-93
2021/05/22 02:48:06;;;;;;;9.13;3.65;;;;;;;10.67;77.14;99381.55;3434546;84;98802;-93
2021/05/22 02:53:09;;;;;;;6.90;3.20;;;;;;;10.68;77.86;99366.63;3405651;84;35411;-93
2021/05/22 02:58:12;;;;;;;9.45;3.55;;;;;;;10.69;77.46;99376.45;3422472;84;98593;-92
2021/05/22 03:03:16;;;;;;;9.10;3.60;;;;;;;10.70;77.54;99388.44;3428050;84;32000;-92
2021/05/22 03:08:17;;;;;;;7.85;3.42;;;;;;;10.69;77.47;99388.22;3427216;83;99227;-92
2021/05/22 03:13:17;;;;;;;7.23;3.27;;;;;;;10.72;78.10;99389.39;3435984;84;25717;-92
2021/05/22 03:18:19;;;;;;;6.77;3.03;;;;;;;10.73;77.97;99386.82;3429209;84;98946;-93
2021/05/22 03:23:19;;;;;;;8.30;3.70;;;;;;;10.74;78.04;99389.18;3433494;84;25774;-92
2021/05/22 03:28:21;;;;;;;10.20;3.52;;;;;;;10.76;78.19;99375.02;3420984;84;98694;-91
2021/05/22 03:33:22;;;;;;;9.30;3.43;;;;;;;10.79;78.00;99379.73;3406791;84;32967;-92
2021/05/22 03:38:23;;;;;;;7.83;3.17;;;;;;;10.82;78.05;99376.16;3437793;84;98746;-92
2021/05/22 03:43:24;;;;;;;8.93;3.40;;;;;;;10.83;77.90;99382.64;3438515;84;32992;-92
2021/05/22 03:48:25;;;;;;;8.03;3.70;;;;;;;10.87;78.37;99387.54;3439850;84;98822;-92
2021/05/22 03:53:26;;;;;;;7.42;3.33;;;;;;;10.90;78.42;99428.00;3429833;84;32914;-91
2021/05/22 03:58:26;;;;;;;8.03;4.00;;;;;;;10.94;78.70;99428.77;3434167;84;98747;-91
2021/05/22 04:03:27;;;;;;;8.87;3.40;;;;;;;10.99;78.81;99412.41;3436067;84;26005;-92
2021/05/22 04:08:28;;;;;;;9.80;3.95;;;;;;;11.06;78.77;99415.13;3429262;84;98949;-92
2021/05/22 04:13:30;;;;;;;9.77;4.07;;;;;;;11.12;78.95;99432.79;3435760;84;26351;-92
2021/05/22 04:18:31;;;;;;;8.80;3.37;;;;;;;11.19;79.05;99425.84;3431035;84;98776;-92
2021/05/22 04:23:32;;;;;;;7.77;3.70;;;;;;;11.27;78.87;99428.72;3437190;84;26188;-91
2021/05/22 04:28:33;;;;;;;7.93;4.00;;;;;;;11.35;79.35;99428.25;3431694;83;98715;-91
2021/05/22 04:33:33;;;;;;;7.87;3.60;;;;;;;11.43;78.83;99438.63;3436988;84;26357;-90
2021/05/22 04:38:34;;;;;;;8.98;3.60;;;;;;;11.51;79.03;99438.16;3412872;84;98801;-91
2021/05/22 04:43:35;;;;;;;8.85;3.90;;;;;;;11.60;79.19;99447.36;3415578;84;26470;-90
2021/05/22 04:48:36;;;;;;;7.30;3.67;;;;;;;11.67;78.85;99454.22;3410718;84;98730;-91
2021/05/22 04:53:37;;;;;;;8.70;4.77;;;;;;;11.72;78.88;99453.16;3406828;84;33192;-91
2021/05/22 04:58:38;;;;;;;9.20;3.60;;;;;;;11.78;78.63;99444.64;3413179;84;99120;-92
2021/05/22 05:03:39;;;;;;;12.53;4.23;;;;;;;11.83;78.40;99441.44;3410450;84;33400;-93
2021/05/22 05:08:40;;;;;;;6.33;3.67;;;;;;;11.90;78.43;99443.36;3403068;84;98506;-92
2021/05/22 05:13:41;;;;;;;8.53;3.97;;;;;;;11.96;78.26;99427.34;3413839;84;33604;-91
2021/05/22 05:18:42;;;;;;;8.67;4.17;;;;;;;12.00;78.46;99440.48;3406950;84;98763;-92
2021/05/22 05:23:43;;;;;;;7.90;3.77;;;;;;;12.03;78.37;99431.39;3418313;84;33194;-92
2021/05/22 05:28:44;;;;;;;9.73;4.57;;;;;;;12.09;78.60;99441.37;3412896;84;98882;-91
2021/05/22 05:33:45;;;;;;;8.67;4.07;;;;;;;12.13;78.27;99450.39;3414350;84;33644;-94
2021/05/22 05:38:46;;;;;;;9.13;4.05;;;;;;;12.17;78.00;99447.80;3432660;84;98926;-93
2021/05/22 05:43:46;;;;;;;7.33;3.50;;;;;;;12.24;77.84;99444.95;3430079;84;32611;-93
2021/05/22 05:48:47;;;;;;;10.00;4.85;;;;;;;12.31;77.62;99439.97;3427740;84;99163;-92
2021/05/22 05:53:48;;;;;;;9.57;4.00;;;;;;;12.37;77.64;99445.97;3437607;84;32506;-91
2021/05/22 05:58:49;;;;;;;8.33;3.80;;;;;;;12.43;77.42;99444.33;3415346;84;98621;-92
2021/05/22 06:03:50;;;;;;;9.27;4.23;;;;;;;12.47;77.53;99449.80;3442683;84;32191;-92
2021/05/22 06:08:51;;;;;;;7.37;3.80;;;;;;;12.52;77.47;99444.61;3426397;84;98975;-92
2021/05/22 06:13:51;;;;;;;8.37;3.80;;;;;;;12.63;77.46;99443.09;3431695;84;31594;-92
2021/05/22 06:18:53;;;;;;;10.00;3.63;;;;;;;12.72;77.50;99448.31;3430340;84;98667;-92
2021/05/22 06:23:54;;;;;;;9.57;3.93;;;;;;;12.85;77.30;99452.65;3432729;84;31712;-92
2021/05/22 06:28:55;;;;;;;7.37;3.15;;;;;;;12.92;77.52;99433.24;3433194;84;100859;-91
2021/05/22 06:33:56;;;;;;;9.17;3.47;;;;;;;13.19;76.88;99461.69;3429008;84;26407;-92
2021/05/22 06:38:57;;;;;;;11.77;3.63;;;;;;;13.34;76.48;99451.95;3425233;84;98880;-92
2021/05/22 06:43:58;;;;;;;8.17;3.70;;;;;;;13.47;76.13;99448.19;3426059;84;25999;-93
2021/05/22 06:48:59;;;;;;;7.57;2.83;;;;;;;13.59;75.75;99445.44;3424995;84;98877;-92
2021/05/22 06:54:00;;;;;;;7.13;3.00;;;;;;;13.63;75.28;99444.17;3430906;84;25870;-89
2021/05/22 06:59:01;;;;;;;6.07;2.83;;;;;;;13.69;74.97;99443.86;3423401;83;98976;-92
2021/05/22 07:04:03;;;;;;;8.13;3.73;;;;;;;13.68;74.76;99469.95;3434940;84;34901;-92
2021/05/22 07:09:04;;;;;;;7.13;3.57;;;;;;;13.70;74.78;99462.05;3422540;84;98739;-91
2021/05/22 07:14:05;;;;;;;8.83;4.03;;;;;;;13.65;74.92;99458.38;3425188;84;35272;-91
2021/05/22 07:19:06;;;;;;;8.80;3.67;;;;;;;13.62;75.28;99457.05;3423847;84;98394;-89
2021/05/22 07:24:07;;;;;;;7.20;3.47;;;;;;;13.56;75.76;99456.73;3426809;84;35321;-86
2021/05/22 07:29:09;;;;;;;6.20;3.10;;;;;;;13.53;75.57;99458.18;3424390;84;98800;-86
2021/05/22 07:34:11;;;;;;;8.57;3.40;;;;;;;13.47;75.98;99452.95;3431421;84;35361;-86
2021/05/22 07:39:13;;;;;;;8.60;3.37;;;;;;;13.43;76.12;99446.69;3419220;84;98878;-88
2021/05/22 07:44:14;;;;;;;7.40;4.27;;;;;;;13.39;76.84;99466.09;3424108;84;26044;-87
2021/05/22 07:49:15;;;;;;;7.83;3.23;;;;;;;13.45;77.26;99481.59;3431481;84;98817;-86
2021/05/22 07:54:16;;;;;;;10.07;3.50;;;;;;;13.43;76.97;99478.48;3428873;84;34830;-86
2021/05/22 07:59:16;;;;;;;8.10;3.40;;;;;;;13.46;77.33;99476.27;3417840;84;98915;-87
2021/05/22 08:04:17;;;;;;;8.43;3.53;;;;;;;13.51;77.15;99469.65;3431464;84;34898;-87
2021/05/22 08:09:18;;;;;;;6.97;3.08;;;;;;;13.58;76.93;99480.58;3430362;84;99029;-86
2021/05/22 08:14:19;;;;;;;8.07;3.27;;;;;;;13.62;76.97;99484.70;3436386;84;30055;-90
2021/05/22 08:19:20;;;;;;;7.37;3.33;;;;;;;13.62;76.90;99477.79;3424301;84;98659;-85
2021/05/22 08:24:21;;;;;;;8.80;3.80;;;;;;;13.64;77.35;99470.64;3427321;84;28522;-86
2021/05/22 08:29:22;;;;;;;6.65;3.65;;;;;;;13.78;77.14;99448.84;3425965;84;98579;-87
2021/05/22 08:34:25;;;;;;;8.03;3.60;;;;;;;14.01;76.93;99454.38;3437371;84;29704;-89
2021/05/22 08:39:25;;;;;;;11.00;4.37;;;;;;;14.27;76.47;99454.88;3427789;84;98568;-83
2021/05/22 08:44:26;;;;;;;9.60;3.20;;;;;;;14.38;75.76;99444.42;3429537;84;30347;-87
2021/05/22 08:49:40;;;;;;;10.97;4.80;;;;;;;14.53;75.36;99442.91;3411002;84;98729;-88
2021/05/22 08:54:30;;;;;;;9.68;3.58;;;;;;;14.65;75.16;99440.27;3415070;84;98769;-86
2021/05/22 08:59:32;;;;;;;8.58;3.60;;;;;;;14.85;74.72;99438.27;3430210;84;31938;-85
2021/05/22 09:05:08;;;;;;;9.55;3.67;;;;;;;15.09;74.21;99436.16;3412311;84;98857;-86
2021/05/22 09:10:16;;;;;;;9.58;4.58;;;;;;;15.29;73.85;99378.64;3432911;84;34803;-87
2021/05/22 09:15:21;;;;;;;8.88;4.70;;;;;;;15.43;72.72;99400.51;3418500;84;98885;-87
2021/05/22 09:20:30;;;;;;;8.95;4.10;;;;;;;15.58;72.57;99408.02;3423875;84;34811;-86
2021/05/22 09:25:34;;;;;;;8.10;3.58;;;;;;;15.86;72.31;99400.34;3419102;84;98931;-88
2021/05/22 09:30:38;;;;;;;8.85;4.08;;;;;;;16.27;71.21;99399.03;3430446;84;35201;-90
2021/05/22 09:35:39;;;;;;;8.33;3.58;;;;;;;16.64;70.20;99402.55;3419738;84;98991;-86
2021/05/22 09:40:42;;;;;;;6.85;3.17;;;;;;;16.56;68.68;99365.70;3422583;84;34809;-83
2021/05/22 09:45:46;;;;;;;7.70;3.40;;;;;;;17.17;66.87;99403.05;3419208;82;98855;-85
2021/05/22 09:50:49;;;;;;;8.70;3.65;;;;;;;17.17;66.61;99402.30;3428135;84;35361;-85
2021/05/22 09:56:13;;;;;;;7.78;3.47;;;;;;;17.50;65.89;99411.34;3421570;83;98990;-84
2021/05/22 10:01:15;;;;;;;7.03;3.58;;;;;;;17.85;63.97;99403.80;3432589;84;35013;-86
2021/05/22 10:06:16;;;;;;;8.95;4.25;;;;;;;17.80;64.37;99387.07;3395108;84;99067;-86
2021/05/22 10:11:17;;;;;;;8.35;3.20;;;;;;;17.96;63.31;99381.94;3428065;84;34833;-87
2021/05/22 10:16:18;;;;;;;6.93;2.67;;;;;;;18.07;62.90;99372.59;3392316;83;98789;-86
2021/05/22 10:21:19;;;;;;;6.30;3.17;;;;;;;18.83;61.01;99378.69;3421498;84;33587;-88
2021/05/22 10:26:20;;;;;;;7.40;2.72;;;;;;;18.82;59.67;99373.56;3422553;84;98937;-87
2021/05/22 10:31:21;;;;;;;7.83;2.85;;;;;;;19.04;59.48;99363.91;3425319;84;35610;-88
2021/05/22 10:36:57;;;;;;;5.20;2.55;;;;;;;19.49;56.70;99372.44;3420587;84;98574;-87
2021/05/22 10:41:58;;;;;;;8.20;2.77;;;;;;;19.51;57.44;99376.92;3420510;84;26115;-88
2021/05/22 10:47:13;;;;;;;7.42;2.00;;;;;;;19.29;55.40;99394.39;3420794;84;98910;-88
2021/05/22 10:52:25;;;;;;;4.20;1.47;;;;;;;18.95;57.07;99446.13;3425602;84;25942;-87
2021/05/22 10:57:27;;;;;;;3.65;1.17;;;;;;;18.16;58.88;99492.42;3423207;84;98675;-86
2021/05/22 11:02:39;;;;;;;3.47;1.15;;;;;;;17.17;61.03;99496.20;3435777;83;35332;-86
2021/05/22 11:07:40;;;;;;;5.80;1.70;;;;;;;16.30;63.16;99480.05;3402341;84;98900;-82
2021/05/22 11:12:43;;;;;;;7.30;1.87;;;;;;;15.71;64.70;99478.25;3432634;84;32915;-86
2021/05/22 11:17:50;;;;;;;9.53;1.50;;;;;;;15.36;65.65;99475.55;3437166;83;99060;-82
2021/05/22 11:23:00;;;;;;;4.00;1.35;;;;;;;15.16;67.01;99472.01;3430769;84;34871;-84
2021/05/22 11:28:02;;;;;;;5.55;1.62;;;;;;;15.07;68.39;99465.67;3375103;84;99001;-84
2021/05/22 11:33:08;;;;;;;4.22;1.32;;;;;;;15.46;70.61;99455.88;3434667;84;35358;-86
2021/05/22 11:38:23;;;;;;;1.60;0.97;;;;;;;15.43;70.07;99453.95;3406029;84;98732;-87
2021/05/22 11:43:32;;;;;;;3.37;1.30;;;;;;;15.34;70.50;99464.09;3428349;84;26392;-85
2021/05/22 11:48:47;;;;;;;4.12;1.50;;;;;;;15.51;71.65;99462.29;3418409;84;98811;-82
2021/05/22 11:54:04;;;;;;;3.60;1.55;;;;;;;15.75;71.71;99460.13;3425869;84;35340;-84
2021/05/22 11:59:06;;;;;;;;;;;;;;;16.17;70.27;99459.00;3428100;84;98839;-86
2021/05/22 12:04:11;;;;;;;3.17;1.50;;;;;;;16.31;70.17;99462.19;3421678;84;34932;-84
2021/05/22 12:09:20;;;;;;;4.97;1.55;;;;;;;16.64;70.59;99451.16;3427636;84;98853;-86
2021/05/22 12:14:21;;;;;;;4.53;1.50;;;;;;;16.98;68.60;99454.70;3419536;84;34834;-85
2021/05/22 12:19:22;;;;;;;5.83;1.75;;;;;;;17.10;69.11;99442.20;3413670;84;98566;-84
2021/05/22 12:24:23;;;;;;;2.02;0.85;;;;;;;17.56;68.97;99435.22;3425100;84;31090;-84
2021/05/22 12:29:28;;;;;;;3.70;1.40;;;;;;;17.68;67.67;99427.45;3415919;84;98959;-86
2021/05/22 12:34:35;;;;;;;4.47;1.57;;;;;;;17.83;65.57;99427.91;3414878;84;98909;-84
2021/05/22 12:39:46;;;;;;;5.17;1.17;;;;;;;17.64;65.67;99430.36;3428570;84;35341;-84
2021/05/22 12:44:50;;;;;;;4.65;1.32;;;;;;;17.79;63.69;99429.26;3396610;86;99374;-82
2021/05/22 12:49:55;;;;;;;2.50;1.12;;;;;;;18.01;65.12;99423.13;3425613;85;34756;-85
2021/05/22 12:54:57;;;;;;;3.42;1.00;;;;;;;18.34;64.72;99413.21;3407679;85;99049;-83
2021/05/22 13:00:03;;;;;;;5.85;1.15;;;;;;;18.50;62.65;99407.44;3407955;85;35962;-84
2021/05/22 13:05:11;;;;;;;4.37;1.20;;;;;;;18.57;61.74;99407.17;3398746;85;99009;-83
2021/05/22 13:10:17;;;;;;;6.92;1.52;;;;;;;18.62;60.96;99392.05;3418680;85;34817;-83
2021/05/22 13:15:18;;;;;;;;;;;;;;;18.54;58.85;99381.63;3411322;85;98881;-84
2021/05/22 13:20:26;;;;;;;3.05;0.95;;;;;;;18.65;57.53;99373.00;3412961;86;34864;-84
2021/05/22 13:25:31;;;;;;;6.75;1.05;;;;;;;18.83;58.51;99375.91;3403331;85;98961;-83
2021/05/22 13:30:45;;;;;;;3.77;1.27;;;;;;;19.20;56.99;99358.08;3408880;86;26410;-82
2021/05/22 13:35:46;;;;;;;5.05;0.90;;;;;;;19.40;52.71;99361.24;3406697;85;98838;-83
2021/05/22 13:40:47;;;;;;;2.70;1.23;;;;;;;19.47;54.86;99360.97;3415196;85;34273;-85
2021/05/22 13:45:48;;;;;;;7.35;1.40;;;;;;;19.47;52.03;99365.16;3423249;84;98922;-86
2021/05/22 13:50:49;;;;;;;2.87;1.10;;;;;;;19.28;52.02;99360.76;3432574;84;32943;-85
2021/05/22 13:55:50;;;;;;;5.97;1.27;;;;;;;19.16;51.51;99370.59;3422428;84;98671;-84
2021/05/22 14:00:50;;;;;;;7.00;1.27;;;;;;;18.94;52.52;99408.94;3433090;84;34283;-85
2021/05/22 14:05:51;;;;;;;5.00;1.25;;;;;;;18.45;56.21;99386.53;3419167;84;98959;-82
2021/05/22 14:10:52;;;;;;;5.92;1.80;;;;;;;18.28;56.76;99381.57;3428008;84;26850;-84
2021/05/22 14:15:52;;;;;;;2.53;0.90;;;;;;;18.26;57.68;99377.08;3425567;84;98949;-84
2021/05/22 14:20:54;;;;;;;7.53;1.90;;;;;;;18.33;57.88;99380.42;3430147;84;32091;-84
2021/05/22 14:25:55;;;;;;;4.40;1.42;;;;;;;18.28;57.07;99380.18;3428938;84;99248;-85
2021/05/22 14:30:57;;;;;;;5.30;1.53;;;;;;;18.22;58.41;99371.64;3440341;83;32774;-85
2021/05/22 14:35:57;;;;;;;5.75;1.67;;;;;;;18.01;56.30;99381.36;3421012;84;99198;-86
2021/05/22 14:40:59;;;;;;;5.40;1.00;;;;;;;17.88;55.59;99391.15;3431240;84;31977;-86
2021/05/22 14:46:01;;;;;;;5.08;1.47;;;;;;;17.75;53.46;99387.64;3433209;84;99209;-89
2021/05/22 14:51:02;;;;;;;7.08;2.15;;;;;;;17.61;53.82;99387.35;3437833;84;32535;-88
2021/05/22 14:56:04;;;;;;;3.35;0.75;;;;;;;17.42;52.05;99396.72;3421255;84;98576;-87
2021/05/22 15:01:05;;;;;;;5.72;1.17;;;;;;;17.27;52.72;99398.40;3436233;84;32479;-87
2021/05/22 15:06:06;;;;;;;8.35;2.33;;;;;;;17.17;51.54;99396.11;3433108;84;99484;-86
2021/05/22 15:11:07;;;;;;;8.80;0.90;;;;;;;17.21;50.54;99394.59;3442783;84;27693;-87
2021/05/22 15:16:08;;;;;;;2.40;1.02;;;;;;;17.33;48.47;99394.59;3431153;84;98956;-85
2021/05/22 15:21:08;;;;;;;4.20;1.20;;;;;;;17.48;48.02;99401.88;3432619;84;26761;-85
2021/05/22 15:26:11;;;;;;;5.42;1.15;;;;;;;17.62;47.39;99414.73;3426417;84;98883;-85
2021/05/22 15:31:12;;;;;;;4.47;1.25;;;;;;;17.66;46.54;99406.27;3425370;84;32466;-87
2021/05/22 15:36:12;;;;;;;5.75;1.10;;;;;;;17.70;45.67;99412.47;3427771;84;98637;-87
2021/05/22 15:41:13;;;;;;;6.53;1.37;;;;;;;17.70;46.56;99410.47;3435821;84;26287;-82
2021/05/22 15:46:17;;;;;;;5.77;1.20;;;;;;;17.68;46.54;99417.11;3396267;84;98935;-87
2021/05/22 15:51:56;;;;;;;4.35;1.55;;;;;;;17.61;45.97;99427.06;3434227;84;31557;-87
2021/05/22 16:01:47;;;;;;;4.30;1.37;;;;;;;17.33;46.14;99447.44;3438028;83;32555;-88
2021/05/22 16:06:45;;;;;;;6.80;1.40;;;;;;;17.21;46.84;99454.38;3420573;84;98599;-87
2021/05/22 16:11:47;;;;;;;7.47;1.45;;;;;;;17.10;46.94;99461.67;3428417;84;32611;-82
2021/05/22 16:16:50;;;;;;;9.93;1.82;;;;;;;16.92;46.87;99463.42;3420244;84;98920;-85
2021/05/22 16:21:51;;;;;;;4.58;1.17;;;;;;;16.82;47.25;99459.75;3424373;84;32578;-87
2021/05/22 16:26:52;;;;;;;6.27;1.10;;;;;;;16.72;47.28;99452.50;3420174;83;98547;-87
2021/05/22 16:31:52;;;;;;;2.97;1.03;;;;;;;16.69;47.49;99459.55;3425835;84;27692;-88
2021/05/22 16:36:53;;;;;;;6.10;1.20;;;;;;;16.63;47.38;99466.24;3427402;84;98610;-86
2021/05/22 16:41:54;;;;;;;4.47;1.50;;;;;;;16.64;47.34;99476.77;3420930;84;26997;-87
2021/05/22 16:46:56;;;;;;;6.60;0.90;;;;;;;16.66;47.27;99480.66;3427284;84;98902;-86
2021/05/22 16:51:57;;;;;;;2.83;1.00;;;;;;;16.66;46.76;99478.48;3431383;84;28671;-87
2021/05/22 16:56:58;;;;;;;5.80;1.07;;;;;;;16.62;47.04;99493.10;3424004;84;98766;-87
2021/05/22 17:01:59;;;;;;;6.97;1.50;;;;;;;16.60;46.89;99492.14;3428438;84;26376;-87
2021/05/22 17:07:00;;;;;;;5.63;1.20;;;;;;;16.52;46.74;99487.98;3432310;84;98596;-86
2021/05/22 17:12:01;;;;;;;5.17;1.30;;;;;;;16.46;47.68;99486.97;3433717;84;25830;-84
2021/05/22 17:17:02;;;;;;;5.87;0.90;;;;;;;16.38;47.40;99486.98;3424084;82;99115;-84
2021/05/22 17:22:03;;;;;;;6.25;1.40;;;;;;;16.29;47.94;99498.55;3431787;84;26813;-83
2021/05/22 17:27:05;;;;;;;8.30;1.77;;;;;;;16.20;47.80;99503.94;3416121;84;99126;-85
2021/05/22 17:32:06;;;;;;;4.78;0.90;;;;;;;16.12;47.90;99513.65;3436857;84;26665;-84
2021/05/22 17:37:07;;;;;;;7.50;1.30;;;;;;;16.04;47.77;99519.23;3462969;83;99296;-86
2021/05/22 17:42:07;;;;;;;6.83;1.30;;;;;;;15.97;47.76;99533.29;3414330;84;33305;-84
2021/05/22 17:47:10;;;;;;;5.17;0.93;;;;;;;15.88;48.23;99544.20;3419465;85;99020;-87
2021/05/22 17:52:11;;;;;;;4.73;1.50;;;;;;;15.72;48.30;99558.86;3438860;83;26387;-85
2021/05/22 17:57:12;;;;;;;4.27;1.00;;;;;;;15.55;48.48;99561.44;3449274;83;98903;-84
2021/05/22 18:02:13;;;;;;;5.47;1.47;;;;;;;15.37;48.73;99563.81;3445947;83;33885;-87
2021/05/22 18:07:14;;;;;;;4.70;1.10;;;;;;;15.23;49.34;99583.51;3447562;83;99284;-84
2021/05/22 18:12:16;;;;;;;6.27;1.10;;;;;;;15.09;49.85;99587.19;3445107;83;33803;-81
2021/05/22 18:17:16;;;;;;;3.70;1.10;;;;;;;14.91;51.10;99595.05;3437767;83;98783;-84
2021/05/22 18:22:17;;;;;;;5.33;1.33;;;;;;;14.74;51.20;99620.52;3454167;83;33199;-84
2021/05/22 18:27:18;;;;;;;8.07;1.20;;;;;;;14.55;51.41;99613.56;3438070;83;98866;-85
2021/05/22 18:32:22;;;;;;;4.07;0.77;;;;;;;14.37;52.00;99615.83;3440585;83;33281;-85
2021/05/22 18:37:22;;;;;;;14.57;2.90;;;;;;;14.25;52.52;99624.74;3448120;83;98670;-85
2021/05/22 18:42:24;;;;;;;4.67;1.20;;;;;;;14.14;52.97;99632.41;3457646;83;33274;-84
2021/05/22 18:47:25;;;;;;;1.50;0.70;;;;;;;14.02;53.99;99640.67;3444221;83;98895;-86
2021/05/22 18:52:26;;;;;;;3.87;1.10;;;;;;;13.92;54.58;99640.27;3440579;83;33252;-87
2021/05/22 18:57:27;;;;;;;3.80;1.03;;;;;;;13.84;54.97;99640.17;3447808;83;99174;-86
2021/05/22 19:02:28;;;;;;;3.90;0.83;;;;;;;13.69;55.61;99639.42;3451007;83;33350;-85
2021/05/22 19:07:29;;;;;;;4.95;1.27;;;;;;;13.67;56.42;99660.56;3463702;83;98934;-86
2021/05/22 19:12:30;;;;;;;4.77;1.60;;;;;;;13.54;56.85;99665.10;3440261;84;33291;-82
2021/05/22 19:17:31;;;;;;;6.63;1.53;;;;;;;13.43;57.67;99667.80;3418001;83;99025;-84
2021/05/22 19:22:32;;;;;;;4.08;1.37;;;;;;;13.28;58.16;99682.98;3436755;84;33225;-83
2021/05/22 19:27:33;;;;;;;3.20;1.20;;;;;;;13.15;58.59;99691.63;3418366;84;100440;-83
2021/05/22 19:32:33;;;;;;;3.57;1.10;;;;;;;13.05;59.18;99687.00;3428733;84;31657;-86
2021/05/22 19:37:36;;;;;;;3.27;1.13;;;;;;;12.90;60.15;99698.77;3423629;84;98578;-85
2021/05/22 19:42:40;;;;;;;7.40;2.25;;;;;;;12.78;60.53;99699.28;3429764;84;32085;-87
2021/05/22 19:47:40;;;;;;;10.13;3.67;;;;;;;12.70;61.37;99706.05;3421883;84;99020;-84
2021/05/22 19:52:44;;;;;;;3.30;1.33;;;;;;;12.57;61.63;99710.52;3416433;84;31945;-84
2021/05/22 19:57:47;;;;;;;5.40;1.70;;;;;;;12.46;62.03;99720.86;3413822;84;98724;-85
2021/05/22 20:02:51;;;;;;;4.20;1.37;;;;;;;12.38;62.45;99717.95;3409338;85;33749;-83
2021/05/22 20:07:53;;;;;;;4.62;2.02;;;;;;;12.29;63.63;99723.16;3421759;84;98814;-82
2021/05/22 20:12:55;;;;;;;5.97;2.22;;;;;;;12.19;63.44;99724.59;3419488;84;33281;-83
2021/05/22 20:17:56;;;;;;;3.12;1.45;;;;;;;12.09;64.06;99727.62;3421319;84;98633;-82
2021/05/22 20:22:58;;;;;;;5.75;2.02;;;;;;;12.00;64.29;99727.27;3431279;84;31689;-83
2021/05/22 20:27:59;;;;;;;6.45;2.00;;;;;;;11.97;64.93;99724.53;3416891;84;98792;-84
2021/05/22 20:33:00;;;;;;;7.25;2.10;;;;;;;11.94;65.10;99741.29;3431058;84;31608;-88
2021/05/22 20:38:01;;;;;;;7.53;2.60;;;;;;;11.90;65.46;99735.03;3423252;84;98924;-89
2021/05/22 20:43:03;;;;;;;7.03;2.33;;;;;;;11.87;65.99;99733.65;3430074;84;31563;-88
2021/05/22 20:48:05;;;;;;;5.43;2.37;;;;;;;11.85;66.47;99741.55;3415573;84;98665;-88
2021/05/22 20:53:05;;;;;;;7.67;2.50;;;;;;;11.84;66.90;99747.64;3408723;84;31716;-88
2021/05/22 20:58:06;;;;;;;6.50;2.47;;;;;;;11.83;67.17;99740.56;3413848;84;98853;-88
2021/05/22 21:03:08;;;;;;;4.27;1.83;;;;;;;11.81;67.26;99741.56;3418842;84;31765;-87
2021/05/22 21:08:09;;;;;;;5.73;1.97;;;;;;;11.83;67.98;99735.66;3397199;84;98725;-88
2021/05/22 21:13:09;;;;;;;3.83;1.70;;;;;;;11.84;68.33;99741.36;3419512;84;31633;-88
2021/05/22 21:18:10;;;;;;;8.13;2.15;;;;;;;11.80;68.96;99739.20;3413696;84;98716;-88
2021/05/22 21:23:12;;;;;;;10.23;3.17;;;;;;;11.79;69.21;99748.09;3413880;84;32206;-89
2021/05/22 21:28:13;;;;;;;7.73;2.87;;;;;;;11.79;69.38;99747.29;3408092;84;98559;-88
2021/05/22 21:33:14;;;;;;;6.60;2.00;;;;;;;11.77;69.43;99751.81;3418807;84;32324;-88
2021/05/22 21:38:15;;;;;;;6.93;2.07;;;;;;;11.77;69.71;99743.55;3415844;83;98888;-87
2021/05/22 21:43:16;;;;;;;4.67;2.02;;;;;;;11.77;69.95;99749.06;3415580;84;32054;-88
2021/05/22 21:48:16;;;;;;;5.47;1.90;;;;;;;11.78;70.00;99753.99;3389388;85;98943;-87
2021/05/22 21:53:18;;;;;;;5.60;2.08;;;;;;;11.80;70.00;99753.78;3401155;85;26398;-88
2021/05/22 21:58:19;;;;;;;6.37;2.37;;;;;;;11.81;70.32;99756.73;3419522;84;98676;-86
2021/05/22 22:03:31;;;;;;;9.23;2.37;;;;;;;11.81;70.65;99758.11;3425480;84;25799;-88
2021/05/22 22:08:32;;;;;;;7.55;2.10;;;;;;;11.83;70.64;99764.61;3413961;84;98686;-87
2021/05/22 22:13:33;;;;;;;5.47;1.90;;;;;;;11.83;70.63;99755.72;3367625;85;25780;-86
2021/05/22 22:18:34;;;;;;;5.87;2.13;;;;;;;11.84;71.14;99761.42;3362270;85;98779;-86
2021/05/22 22:23:39;;;;;;;7.67;2.40;;;;;;;11.85;71.46;99769.12;3378034;85;27710;-89
2021/05/22 22:28:40;;;;;;;9.08;2.58;;;;;;;11.85;71.58;99778.77;3414706;84;101406;-88
2021/05/22 22:33:42;;;;;;;8.90;3.17;;;;;;;11.84;71.51;99789.61;3418379;84;26338;-88
2021/05/22 22:38:47;;;;;;;9.47;2.70;;;;;;;11.83;71.80;99786.05;3368028;84;98828;-87
2021/05/22 22:43:48;;;;;;;8.10;2.10;;;;;;;11.78;73.16;99778.20;3421953;84;30711;-88
2021/05/22 22:48:49;;;;;;;7.27;2.20;;;;;;;11.72;73.75;99788.06;3491492;82;98733;-89
2021/05/22 22:53:50;;;;;;;7.53;1.82;;;;;;;11.67;74.48;99789.09;3495444;82;31039;-87
2021/05/22 22:58:54;;;;;;;6.43;1.93;;;;;;;11.59;74.64;99777.30;3494962;82;98513;-88
2021/05/22 23:03:55;;;;;;;9.90;2.62;;;;;;;11.56;75.00;99776.67;3495805;82;32244;-87
2021/05/22 23:08:55;;;;;;;7.55;2.92;;;;;;;11.51;74.99;99777.08;3492854;81;98319;-88
2021/05/22 23:13:56;;;;;;;6.40;2.13;;;;;;;11.50;75.28;99784.39;3492237;82;34830;-87
2021/05/22 23:18:57;;;;;;;5.30;1.97;;;;;;;11.45;75.30;99782.04;3487359;82;98313;-87
2021/05/22 23:23:57;;;;;;;6.23;2.43;;;;;;;11.41;75.69;99786.77;3494128;82;34828;-90
2021/05/22 23:28:59;;;;;;;6.73;2.30;;;;;;;11.38;75.82;99790.30;3494952;82;98578;-88
2021/05/22 23:34:00;;;;;;;5.80;2.20;;;;;;;11.35;75.93;99799.38;3498244;82;34765;-89
2021/05/22 23:39:01;;;;;;;4.15;1.90;;;;;;;11.33;76.05;99797.02;3491909;82;98901;-89
2021/05/22 23:44:05;;;;;;;5.83;2.20;;;;;;;11.32;76.29;99797.41;3492364;82;26139;-88
2021/05/22 23:49:06;;;;;;;6.35;2.35;;;;;;;11.29;76.36;99796.84;3521612;81;99023;-87